Аэропорт
Астана (UACC)

 UACC / TSE
ЗЦ Центральная Азия
Астана (UACC)
Астана (UACC)
 51.02220, 71.46690  / 1165 ft

 UACC 151000Z VRB01MPS CAVOK 24/08 Q1011 R04/0///70 NOSIG RMK QFE727/0970
 TAF UACC 150500Z 1506/1606 VRB02MPS 9999 SCT030 SCT100 TX23/1510Z TN12/1523Z TEMPO 1506/1512 BKN030 BECMG 1602/1604 12003MPS BKN030
UACC_aip_1708
показать схемы
Название сценария Тип сценария Flight Simulator 9 Flight Simulator X Prepar3D v2 Prepar3D v3 Prepar3D v4 Prepar3D v5 xPlane
Лёгкий сценарий аэропорта г. Астаны бесплатный


2020 © VATRUS division (Privacy Policy)